sensor_id;sensor_type;location;lat;lon;timestamp;pressure;altitude;pressure_sealevel;temperature;humidity
6194;BME280;3130;41.564;23.280;2023-03-14T00:00:17;99174.94;;;5.67;68.41
6194;BME280;3130;41.564;23.280;2023-03-14T00:02:44;99196.94;;;5.68;68.80
6194;BME280;3130;41.564;23.280;2023-03-14T00:05:30;99196.91;;;5.70;69.60
6194;BME280;3130;41.564;23.280;2023-03-14T00:07:57;99173.56;;;5.59;69.33
6194;BME280;3130;41.564;23.280;2023-03-14T00:10:24;99171.41;;;5.71;69.97
6194;BME280;3130;41.564;23.280;2023-03-14T00:12:51;99197.66;;;5.72;69.57
6194;BME280;3130;41.564;23.280;2023-03-14T00:15:20;99191.03;;;5.68;69.38
6194;BME280;3130;41.564;23.280;2023-03-14T00:17:47;99188.22;;;5.52;69.81
6194;BME280;3130;41.564;23.280;2023-03-14T00:20:14;99160.09;;;5.32;70.63
6194;BME280;3130;41.564;23.280;2023-03-14T00:22:41;99188.53;;;5.43;70.41
6194;BME280;3130;41.564;23.280;2023-03-14T00:25:10;99082.44;;;4.78;70.65
6194;BME280;3130;41.564;23.280;2023-03-14T00:27:38;99183.69;;;5.36;71.23
6194;BME280;3130;41.564;23.280;2023-03-14T00:30:06;99183.84;;;5.33;70.64
6194;BME280;3130;41.564;23.280;2023-03-14T00:32:36;99184.03;;;5.27;71.27
6194;BME280;3130;41.564;23.280;2023-03-14T00:35:03;99186.66;;;5.24;72.71
6194;BME280;3130;41.564;23.280;2023-03-14T00:37:31;99092.16;;;4.66;72.78
6194;BME280;3130;41.564;23.280;2023-03-14T00:39:58;99180.78;;;5.23;72.06
6194;BME280;3130;41.564;23.280;2023-03-14T00:42:25;99149.19;;;5.06;72.22
6194;BME280;3130;41.564;23.280;2023-03-14T00:44:52;99099.44;;;4.76;72.44
6194;BME280;3130;41.564;23.280;2023-03-14T00:47:19;99168.34;;;5.16;72.67
6194;BME280;3130;41.564;23.280;2023-03-14T00:49:48;99170.81;;;5.17;72.66
6194;BME280;3130;41.564;23.280;2023-03-14T00:52:15;99149.53;;;4.95;72.70
6194;BME280;3130;41.564;23.280;2023-03-14T00:54:42;99069.09;;;4.47;72.54
6194;BME280;3130;41.564;23.280;2023-03-14T00:57:09;99169.22;;;5.15;73.27
6194;BME280;3130;41.564;23.280;2023-03-14T00:59:36;99144.19;;;5.03;72.66
6194;BME280;3130;41.564;23.280;2023-03-14T01:02:03;99160.44;;;5.23;72.80
6194;BME280;3130;41.564;23.280;2023-03-14T01:04:31;99162.03;;;5.26;72.67
6194;BME280;3130;41.564;23.280;2023-03-14T01:06:59;99138.81;;;5.12;72.30
6194;BME280;3130;41.564;23.280;2023-03-14T01:09:26;99159.59;;;5.23;72.57
6194;BME280;3130;41.564;23.280;2023-03-14T01:11:53;99136.19;;;5.15;72.24
6194;BME280;3130;41.564;23.280;2023-03-14T01:14:20;99137.88;;;5.14;73.02
6194;BME280;3130;41.564;23.280;2023-03-14T01:16:48;99156.00;;;5.28;72.67
6194;BME280;3130;41.564;23.280;2023-03-14T01:19:15;99151.06;;;5.25;72.18
6194;BME280;3130;41.564;23.280;2023-03-14T01:21:42;99145.28;;;5.20;72.74
6194;BME280;3130;41.564;23.280;2023-03-14T01:24:11;99144.00;;;5.09;72.65
6194;BME280;3130;41.564;23.280;2023-03-14T01:26:38;99137.63;;;4.97;73.10
6194;BME280;3130;41.564;23.280;2023-03-14T01:29:05;99144.81;;;4.85;73.56
6194;BME280;3130;41.564;23.280;2023-03-14T01:31:32;99029.13;;;4.28;73.76
6194;BME280;3130;41.564;23.280;2023-03-14T01:33:59;99107.47;;;4.64;73.28
6194;BME280;3130;41.564;23.280;2023-03-14T01:36:27;99058.28;;;4.42;73.90
6194;BME280;3130;41.564;23.280;2023-03-14T01:38:54;99109.69;;;4.73;73.21
6194;BME280;3130;41.564;23.280;2023-03-14T01:41:24;99052.25;;;4.45;73.34
6194;BME280;3130;41.564;23.280;2023-03-14T01:43:52;99104.69;;;4.70;73.16
6194;BME280;3130;41.564;23.280;2023-03-14T01:46:22;99107.03;;;4.76;73.62
6194;BME280;3130;41.564;23.280;2023-03-14T01:48:55;99101.09;;;4.77;74.08
6194;BME280;3130;41.564;23.280;2023-03-14T01:51:27;99115.63;;;4.96;73.52
6194;BME280;3130;41.564;23.280;2023-03-14T01:54:07;99111.06;;;5.06;73.27
6194;BME280;3130;41.564;23.280;2023-03-14T01:56:37;99091.59;;;4.82;72.58
6194;BME280;3130;41.564;23.280;2023-03-14T01:59:08;99000.94;;;4.12;73.26
6194;BME280;3130;41.564;23.280;2023-03-14T02:01:35;99008.31;;;4.18;73.03
6194;BME280;3130;41.564;23.280;2023-03-14T02:04:05;99115.81;;;4.92;72.99
6194;BME280;3130;41.564;23.280;2023-03-14T02:06:39;99088.06;;;4.62;74.30
6194;BME280;3130;41.564;23.280;2023-03-14T02:09:09;99118.88;;;4.77;73.68
6194;BME280;3130;41.564;23.280;2023-03-14T02:11:38;99127.28;;;4.78;74.46
6194;BME280;3130;41.564;23.280;2023-03-14T02:14:05;99125.88;;;4.71;74.18
6194;BME280;3130;41.564;23.280;2023-03-14T02:16:34;99065.50;;;4.28;74.66
6194;BME280;3130;41.564;23.280;2023-03-14T02:19:02;99135.75;;;4.54;75.40
6194;BME280;3130;41.564;23.280;2023-03-14T02:21:38;99101.06;;;4.27;75.32
6194;BME280;3130;41.564;23.280;2023-03-14T02:24:13;99127.72;;;4.40;75.63
6194;BME280;3130;41.564;23.280;2023-03-14T02:29:29;99139.84;;;4.32;76.34
6194;BME280;3130;41.564;23.280;2023-03-14T02:31:57;99136.34;;;4.34;76.34
6194;BME280;3130;41.564;23.280;2023-03-14T02:34:24;99064.88;;;3.96;76.59
6194;BME280;3130;41.564;23.280;2023-03-14T02:36:52;99131.44;;;4.30;76.35
6194;BME280;3130;41.564;23.280;2023-03-14T02:39:26;99003.44;;;3.61;76.25
6194;BME280;3130;41.564;23.280;2023-03-14T02:41:54;98978.31;;;3.53;76.61
6194;BME280;3130;41.564;23.280;2023-03-14T02:44:21;99116.59;;;4.44;76.05
6194;BME280;3130;41.564;23.280;2023-03-14T02:46:51;99051.13;;;4.03;75.62
6194;BME280;3130;41.564;23.280;2023-03-14T02:49:18;99114.63;;;4.26;76.10
6194;BME280;3130;41.564;23.280;2023-03-14T02:51:45;99120.03;;;4.15;76.09
6194;BME280;3130;41.564;23.280;2023-03-14T02:54:14;99091.91;;;3.95;76.50
6194;BME280;3130;41.564;23.280;2023-03-14T02:56:42;99059.41;;;3.82;76.24
6194;BME280;3130;41.564;23.280;2023-03-14T02:59:09;98950.06;;;3.12;76.52
6194;BME280;3130;41.564;23.280;2023-03-14T03:01:36;99116.00;;;4.10;76.54
6194;BME280;3130;41.564;23.280;2023-03-14T03:04:05;99108.75;;;4.25;77.11
6194;BME280;3130;41.564;23.280;2023-03-14T03:06:32;99117.63;;;4.38;76.16
6194;BME280;3130;41.564;23.280;2023-03-14T03:08:59;99121.50;;;4.48;76.06
6194;BME280;3130;41.564;23.280;2023-03-14T03:11:26;99122.28;;;4.50;76.18
6194;BME280;3130;41.564;23.280;2023-03-14T03:13:53;99018.38;;;3.95;76.29
6194;BME280;3130;41.564;23.280;2023-03-14T03:16:20;99086.44;;;4.35;76.18
6194;BME280;3130;41.564;23.280;2023-03-14T03:18:48;99104.34;;;4.56;76.12
6194;BME280;3130;41.564;23.280;2023-03-14T03:21:16;99109.34;;;4.58;75.63
6194;BME280;3130;41.564;23.280;2023-03-14T03:23:44;99101.59;;;4.38;76.03
6194;BME280;3130;41.564;23.280;2023-03-14T03:26:11;99094.31;;;4.27;76.85
6194;BME280;3130;41.564;23.280;2023-03-14T03:28:38;99077.31;;;4.03;77.12
6194;BME280;3130;41.564;23.280;2023-03-14T03:31:09;99067.81;;;3.83;77.46
6194;BME280;3130;41.564;23.280;2023-03-14T03:33:37;99026.78;;;3.44;78.52
6194;BME280;3130;41.564;23.280;2023-03-14T03:36:04;98964.03;;;2.96;78.77
6194;BME280;3130;41.564;23.280;2023-03-14T03:38:33;99024.03;;;3.23;79.06
6194;BME280;3130;41.564;23.280;2023-03-14T03:41:02;99102.97;;;3.67;79.52
6194;BME280;3130;41.564;23.280;2023-03-14T03:43:30;99086.63;;;3.48;79.95
6194;BME280;3130;41.564;23.280;2023-03-14T03:45:57;99081.25;;;3.30;79.77
6194;BME280;3130;41.564;23.280;2023-03-14T03:48:24;99078.56;;;3.36;80.28
6194;BME280;3130;41.564;23.280;2023-03-14T03:50:52;99100.84;;;3.54;80.25
6194;BME280;3130;41.564;23.280;2023-03-14T03:53:19;99108.47;;;3.52;80.42
6194;BME280;3130;41.564;23.280;2023-03-14T03:55:47;99016.19;;;3.03;80.23
6194;BME280;3130;41.564;23.280;2023-03-14T03:58:14;99063.50;;;3.30;80.88
6194;BME280;3130;41.564;23.280;2023-03-14T04:00:41;99103.53;;;3.48;81.02
6194;BME280;3130;41.564;23.280;2023-03-14T04:03:08;99031.84;;;2.87;80.62
6194;BME280;3130;41.564;23.280;2023-03-14T04:05:36;99095.31;;;3.11;82.02
6194;BME280;3130;41.564;23.280;2023-03-14T04:08:04;98976.03;;;2.30;82.04
6194;BME280;3130;41.564;23.280;2023-03-14T04:10:34;98986.75;;;2.40;82.23
6194;BME280;3130;41.564;23.280;2023-03-14T04:13:02;99095.19;;;3.15;82.12
6194;BME280;3130;41.564;23.280;2023-03-14T04:15:29;99014.66;;;2.67;81.26
6194;BME280;3130;41.564;23.280;2023-03-14T04:17:57;99025.31;;;2.78;81.63
6194;BME280;3130;41.564;23.280;2023-03-14T04:20:24;99090.03;;;3.18;81.67
6194;BME280;3130;41.564;23.280;2023-03-14T04:22:52;99090.59;;;3.28;81.79
6194;BME280;3130;41.564;23.280;2023-03-14T04:25:19;99087.09;;;3.32;82.00
6194;BME280;3130;41.564;23.280;2023-03-14T04:27:47;99063.88;;;3.18;81.65
6194;BME280;3130;41.564;23.280;2023-03-14T04:30:15;99090.16;;;3.43;80.94
6194;BME280;3130;41.564;23.280;2023-03-14T04:32:42;99092.50;;;3.50;80.17
6194;BME280;3130;41.564;23.280;2023-03-14T04:35:10;99065.59;;;3.45;79.67
6194;BME280;3130;41.564;23.280;2023-03-14T04:37:37;99073.91;;;3.50;79.20
6194;BME280;3130;41.564;23.280;2023-03-14T04:40:05;99058.00;;;3.45;78.64
6194;BME280;3130;41.564;23.280;2023-03-14T04:42:32;99084.28;;;3.70;78.58
6194;BME280;3130;41.564;23.280;2023-03-14T04:45:00;99095.81;;;3.80;79.04
6194;BME280;3130;41.564;23.280;2023-03-14T04:47:28;99087.88;;;3.90;78.35
6194;BME280;3130;41.564;23.280;2023-03-14T04:49:55;99005.44;;;3.51;78.34
6194;BME280;3130;41.564;23.280;2023-03-14T04:52:22;99081.69;;;3.98;77.39
6194;BME280;3130;41.564;23.280;2023-03-14T04:54:49;99027.91;;;3.62;76.50
6194;BME280;3130;41.564;23.280;2023-03-14T04:57:16;99086.84;;;3.95;76.12
6194;BME280;3130;41.564;23.280;2023-03-14T04:59:44;99103.22;;;4.13;76.66
6194;BME280;3130;41.564;23.280;2023-03-14T05:02:11;99106.16;;;4.27;76.52
6194;BME280;3130;41.564;23.280;2023-03-14T05:04:39;99104.88;;;4.40;75.76
6194;BME280;3130;41.564;23.280;2023-03-14T05:07:06;99120.16;;;4.38;76.33
6194;BME280;3130;41.564;23.280;2023-03-14T05:09:33;99097.63;;;4.29;76.25
6194;BME280;3130;41.564;23.280;2023-03-14T05:12:00;99045.28;;;4.01;76.21
6194;BME280;3130;41.564;23.280;2023-03-14T05:14:27;99044.56;;;3.96;76.55
6194;BME280;3130;41.564;23.280;2023-03-14T05:16:55;99114.03;;;4.45;76.57
6194;BME280;3130;41.564;23.280;2023-03-14T05:19:22;99102.94;;;4.48;77.18
6194;BME280;3130;41.564;23.280;2023-03-14T05:21:50;99112.97;;;4.51;76.06
6194;BME280;3130;41.564;23.280;2023-03-14T05:24:18;99092.19;;;4.40;75.58
6194;BME280;3130;41.564;23.280;2023-03-14T05:26:45;99104.66;;;4.47;76.11
6194;BME280;3130;41.564;23.280;2023-03-14T05:29:12;99105.63;;;4.43;76.90
6194;BME280;3130;41.564;23.280;2023-03-14T05:31:39;99101.34;;;4.44;76.03
6194;BME280;3130;41.564;23.280;2023-03-14T05:34:06;99034.88;;;4.08;75.80
6194;BME280;3130;41.564;23.280;2023-03-14T05:36:33;99092.78;;;4.48;75.35
6194;BME280;3130;41.564;23.280;2023-03-14T05:39:02;99078.16;;;4.54;75.78
6194;BME280;3130;41.564;23.280;2023-03-14T05:41:30;99109.25;;;4.85;74.63
6194;BME280;3130;41.564;23.280;2023-03-14T05:43:57;99110.09;;;4.86;74.81
6194;BME280;3130;41.564;23.280;2023-03-14T05:46:24;99105.19;;;4.81;74.98
6194;BME280;3130;41.564;23.280;2023-03-14T05:48:51;99065.78;;;4.45;74.64
6194;BME280;3130;41.564;23.280;2023-03-14T05:51:18;99111.13;;;4.56;74.94
6194;BME280;3130;41.564;23.280;2023-03-14T05:53:45;99104.69;;;4.46;74.99
6194;BME280;3130;41.564;23.280;2023-03-14T05:56:14;99105.91;;;4.34;75.66
6194;BME280;3130;41.564;23.280;2023-03-14T05:58:41;99113.56;;;4.33;75.45
6194;BME280;3130;41.564;23.280;2023-03-14T06:01:09;99106.94;;;4.29;76.27
6194;BME280;3130;41.564;23.280;2023-03-14T06:03:36;99108.59;;;4.30;76.62
6194;BME280;3130;41.564;23.280;2023-03-14T06:06:03;99014.78;;;3.77;76.86
6194;BME280;3130;41.564;23.280;2023-03-14T06:08:31;99098.88;;;4.42;76.63
6194;BME280;3130;41.564;23.280;2023-03-14T06:10:58;99102.63;;;4.57;76.67
6194;BME280;3130;41.564;23.280;2023-03-14T06:13:26;99092.09;;;4.67;76.00
6194;BME280;3130;41.564;23.280;2023-03-14T06:15:54;99098.28;;;4.85;75.64
6194;BME280;3130;41.564;23.280;2023-03-14T06:18:21;99020.75;;;4.50;75.04
6194;BME280;3130;41.564;23.280;2023-03-14T06:20:48;99055.97;;;4.84;75.30
6194;BME280;3130;41.564;23.280;2023-03-14T06:23:15;98996.75;;;4.59;75.45
6194;BME280;3130;41.564;23.280;2023-03-14T06:25:42;99026.94;;;4.91;74.90
6194;BME280;3130;41.564;23.280;2023-03-14T06:28:10;99090.59;;;5.33;74.90
6194;BME280;3130;41.564;23.280;2023-03-14T06:30:38;99085.19;;;5.42;74.52
6194;BME280;3130;41.564;23.280;2023-03-14T06:33:05;99068.97;;;5.45;74.14
6194;BME280;3130;41.564;23.280;2023-03-14T06:35:33;99018.13;;;5.22;73.56
6194;BME280;3130;41.564;23.280;2023-03-14T06:38:00;99072.53;;;5.62;73.92
6194;BME280;3130;41.564;23.280;2023-03-14T06:40:27;99057.16;;;5.65;73.67
6194;BME280;3130;41.564;23.280;2023-03-14T06:42:54;98892.44;;;4.65;74.47
6194;BME280;3130;41.564;23.280;2023-03-14T06:45:21;98956.63;;;5.14;74.21
6194;BME280;3130;41.564;23.280;2023-03-14T06:47:50;99073.97;;;5.92;74.39
6194;BME280;3130;41.564;23.280;2023-03-14T06:50:17;99062.72;;;5.97;73.71
6194;BME280;3130;41.564;23.280;2023-03-14T06:52:45;99051.53;;;6.01;74.08
6194;BME280;3130;41.564;23.280;2023-03-14T06:55:13;98889.78;;;5.12;73.59
6194;BME280;3130;41.564;23.280;2023-03-14T06:57:41;99045.56;;;6.42;73.51
6194;BME280;3130;41.564;23.280;2023-03-14T07:00:10;98975.75;;;6.28;72.05
6194;BME280;3130;41.564;23.280;2023-03-14T07:02:38;98956.69;;;6.56;71.82
6194;BME280;3130;41.564;23.280;2023-03-14T07:05:07;98998.53;;;7.63;70.61
6194;BME280;3130;41.564;23.280;2023-03-14T07:07:35;99046.53;;;9.08;67.45
6194;BME280;3130;41.564;23.280;2023-03-14T07:10:03;98984.78;;;9.92;62.36
6194;BME280;3130;41.564;23.280;2023-03-14T07:12:30;98937.06;;;10.76;57.24
6194;BME280;3130;41.564;23.280;2023-03-14T07:14:57;98981.97;;;12.03;52.15
6194;BME280;3130;41.564;23.280;2023-03-14T07:17:24;98928.53;;;12.83;48.65
6194;BME280;3130;41.564;23.280;2023-03-14T07:19:52;99050.94;;;14.66;45.15
6194;BME280;3130;41.564;23.280;2023-03-14T07:22:20;99038.44;;;15.49;41.84
6194;BME280;3130;41.564;23.280;2023-03-14T07:24:47;99057.94;;;16.17;39.35
6194;BME280;3130;41.564;23.280;2023-03-14T07:27:15;99055.00;;;16.74;37.90
6194;BME280;3130;41.564;23.280;2023-03-14T07:29:42;99000.16;;;16.89;36.67
6194;BME280;3130;41.564;23.280;2023-03-14T07:32:09;98997.59;;;17.68;34.99
6194;BME280;3130;41.564;23.280;2023-03-14T07:34:40;98995.50;;;18.29;33.40
6194;BME280;3130;41.564;23.280;2023-03-14T07:37:07;99038.69;;;19.05;31.65
6194;BME280;3130;41.564;23.280;2023-03-14T07:39:35;99047.31;;;19.51;30.27
6194;BME280;3130;41.564;23.280;2023-03-14T07:42:02;98993.34;;;19.53;29.17
6194;BME280;3130;41.564;23.280;2023-03-14T07:44:32;99027.22;;;20.32;28.43
6194;BME280;3130;41.564;23.280;2023-03-14T07:46:59;98990.75;;;21.00;26.89
6194;BME280;3130;41.564;23.280;2023-03-14T07:49:27;99038.97;;;22.04;25.27
6194;BME280;3130;41.564;23.280;2023-03-14T07:51:54;98972.88;;;22.12;25.28
6194;BME280;3130;41.564;23.280;2023-03-14T07:54:22;99008.16;;;22.87;24.73
6194;BME280;3130;41.564;23.280;2023-03-14T07:56:51;99020.44;;;22.79;24.88
6194;BME280;3130;41.564;23.280;2023-03-14T07:59:19;99009.28;;;22.93;25.27
6194;BME280;3130;41.564;23.280;2023-03-14T08:01:46;98970.22;;;22.75;24.85
6194;BME280;3130;41.564;23.280;2023-03-14T08:04:13;98997.69;;;22.79;25.09
6194;BME280;3130;41.564;23.280;2023-03-14T08:06:40;99006.19;;;22.81;25.60
6194;BME280;3130;41.564;23.280;2023-03-14T08:09:07;99011.28;;;22.83;25.46
6194;BME280;3130;41.564;23.280;2023-03-14T08:11:34;99024.47;;;23.13;25.14
6194;BME280;3130;41.564;23.280;2023-03-14T08:14:03;98908.84;;;22.32;25.22
6194;BME280;3130;41.564;23.280;2023-03-14T08:16:30;98947.69;;;20.88;27.11
6194;BME280;3130;41.564;23.280;2023-03-14T08:18:57;99014.66;;;21.54;27.09
6194;BME280;3130;41.564;23.280;2023-03-14T08:21:24;99012.34;;;21.85;26.89
6194;BME280;3130;41.564;23.280;2023-03-14T08:23:51;98953.88;;;21.70;27.26
6194;BME280;3130;41.564;23.280;2023-03-14T08:26:18;99009.66;;;21.61;27.06
6194;BME280;3130;41.564;23.280;2023-03-14T08:28:45;99003.78;;;21.26;27.32
6194;BME280;3130;41.564;23.280;2023-03-14T08:31:14;98951.38;;;20.35;28.61
6194;BME280;3130;41.564;23.280;2023-03-14T08:33:41;98998.94;;;20.20;29.12
6194;BME280;3130;41.564;23.280;2023-03-14T08:36:08;99000.25;;;19.89;29.51
6194;BME280;3130;41.564;23.280;2023-03-14T08:38:36;98998.97;;;19.22;30.05
6194;BME280;3130;41.564;23.280;2023-03-14T08:41:03;98992.44;;;18.62;31.39
6194;BME280;3130;41.564;23.280;2023-03-14T08:43:31;98844.63;;;17.10;32.46
6194;BME280;3130;41.564;23.280;2023-03-14T08:45:59;98936.53;;;17.06;33.22
6194;BME280;3130;41.564;23.280;2023-03-14T08:48:29;98986.47;;;16.78;34.89
6194;BME280;3130;41.564;23.280;2023-03-14T08:50:57;98976.56;;;16.11;35.67
6194;BME280;3130;41.564;23.280;2023-03-14T08:53:39;98958.22;;;15.82;36.07
6194;BME280;3130;41.564;23.280;2023-03-14T08:56:07;98965.75;;;15.85;36.51
6194;BME280;3130;41.564;23.280;2023-03-14T08:58:35;98960.72;;;15.73;36.81
6194;BME280;3130;41.564;23.280;2023-03-14T09:01:04;98911.19;;;15.04;37.81
6194;BME280;3130;41.564;23.280;2023-03-14T09:03:32;98853.34;;;14.51;38.06
6194;BME280;3130;41.564;23.280;2023-03-14T09:06:03;98896.06;;;14.44;38.30
6194;BME280;3130;41.564;23.280;2023-03-14T09:08:31;98929.72;;;14.65;39.06
6194;BME280;3130;41.564;23.280;2023-03-14T09:10:58;98961.06;;;14.82;38.41
6194;BME280;3130;41.564;23.280;2023-03-14T09:13:26;98962.13;;;14.69;39.55
6194;BME280;3130;41.564;23.280;2023-03-14T09:15:53;98959.19;;;14.62;38.88
6194;BME280;3130;41.564;23.280;2023-03-14T09:18:21;98886.06;;;14.18;38.22
6194;BME280;3130;41.564;23.280;2023-03-14T09:20:50;98939.56;;;14.49;39.05
6194;BME280;3130;41.564;23.280;2023-03-14T09:23:17;98952.09;;;14.42;39.51
6194;BME280;3130;41.564;23.280;2023-03-14T09:25:44;98941.66;;;14.44;39.72
6194;BME280;3130;41.564;23.280;2023-03-14T09:28:11;98926.25;;;14.20;40.84
6194;BME280;3130;41.564;23.280;2023-03-14T09:30:39;98940.31;;;14.16;39.87
6194;BME280;3130;41.564;23.280;2023-03-14T09:33:06;98913.59;;;13.94;40.46
6194;BME280;3130;41.564;23.280;2023-03-14T09:35:34;98916.28;;;14.16;40.86
6194;BME280;3130;41.564;23.280;2023-03-14T09:38:03;98817.25;;;13.39;41.13
6194;BME280;3130;41.564;23.280;2023-03-14T09:40:33;98914.59;;;13.81;42.35
6194;BME280;3130;41.564;23.280;2023-03-14T09:43:01;98913.13;;;13.89;42.11
6194;BME280;3130;41.564;23.280;2023-03-14T09:45:32;98882.34;;;13.64;43.32
6194;BME280;3130;41.564;23.280;2023-03-14T09:48:01;98898.13;;;13.83;42.70
6194;BME280;3130;41.564;23.280;2023-03-14T09:50:33;98865.19;;;13.76;42.14
6194;BME280;3130;41.564;23.280;2023-03-14T09:53:09;98789.16;;;13.47;41.69
6194;BME280;3130;41.564;23.280;2023-03-14T09:55:38;98826.13;;;13.35;41.81
6194;BME280;3130;41.564;23.280;2023-03-14T09:58:17;98758.44;;;13.22;42.46
6194;BME280;3130;41.564;23.280;2023-03-14T10:00:46;98853.03;;;14.00;43.04
6194;BME280;3130;41.564;23.280;2023-03-14T10:03:25;98840.63;;;14.05;41.32
6194;BME280;3130;41.564;23.280;2023-03-14T10:05:52;98847.44;;;14.06;40.65
6194;BME280;3130;41.564;23.280;2023-03-14T10:08:23;98696.72;;;13.20;41.49
6194;BME280;3130;41.564;23.280;2023-03-14T10:10:50;98742.00;;;13.57;41.36
6194;BME280;3130;41.564;23.280;2023-03-14T10:13:19;98822.69;;;14.03;41.08
6194;BME280;3130;41.564;23.280;2023-03-14T10:15:51;98792.66;;;13.91;41.42
6194;BME280;3130;41.564;23.280;2023-03-14T10:18:19;98815.69;;;14.27;40.04
6194;BME280;3130;41.564;23.280;2023-03-14T10:20:47;98794.50;;;14.23;38.99
6194;BME280;3130;41.564;23.280;2023-03-14T10:23:27;98812.56;;;14.45;39.39
6194;BME280;3130;41.564;23.280;2023-03-14T10:26:03;98666.59;;;13.77;39.11
6194;BME280;3130;41.564;23.280;2023-03-14T10:28:33;98771.16;;;14.58;39.08
6194;BME280;3130;41.564;23.280;2023-03-14T10:31:01;98722.38;;;14.33;40.17
6194;BME280;3130;41.564;23.280;2023-03-14T10:33:30;98782.59;;;14.76;39.14
6194;BME280;3130;41.564;23.280;2023-03-14T10:35:59;98696.78;;;14.41;39.22
6194;BME280;3130;41.564;23.280;2023-03-14T10:38:30;98735.31;;;14.75;39.33
6194;BME280;3130;41.564;23.280;2023-03-14T10:40:58;98712.03;;;14.86;37.65
6194;BME280;3130;41.564;23.280;2023-03-14T10:43:27;98760.16;;;15.18;37.20
6194;BME280;3130;41.564;23.280;2023-03-14T10:45:59;98746.25;;;15.30;38.26
6194;BME280;3130;41.564;23.280;2023-03-14T10:48:32;98737.31;;;15.34;37.92
6194;BME280;3130;41.564;23.280;2023-03-14T10:51:04;98743.94;;;15.48;37.58
6194;BME280;3130;41.564;23.280;2023-03-14T10:53:42;98677.09;;;15.03;37.71
6194;BME280;3130;41.564;23.280;2023-03-14T10:56:14;98728.56;;;15.46;37.41
6194;BME280;3130;41.564;23.280;2023-03-14T10:58:43;98660.91;;;15.21;38.46
6194;BME280;3130;41.564;23.280;2023-03-14T11:01:31;98717.19;;;15.79;38.75
6194;BME280;3130;41.564;23.280;2023-03-14T11:04:14;98717.38;;;15.87;37.92
6194;BME280;3130;41.564;23.280;2023-03-14T11:06:44;98706.03;;;15.78;37.75
6194;BME280;3130;41.564;23.280;2023-03-14T11:09:22;98712.75;;;15.90;38.47
6194;BME280;3130;41.564;23.280;2023-03-14T11:12:01;98688.78;;;15.88;38.16
6194;BME280;3130;41.564;23.280;2023-03-14T11:14:34;98667.88;;;16.01;38.63
6194;BME280;3130;41.564;23.280;2023-03-14T11:17:09;98558.63;;;15.69;38.08
6194;BME280;3130;41.564;23.280;2023-03-14T11:19:46;98678.13;;;16.51;36.13
6194;BME280;3130;41.564;23.280;2023-03-14T11:22:21;98606.88;;;16.08;35.80
6194;BME280;3130;41.564;23.280;2023-03-14T11:27:44;98648.56;;;16.72;35.80
6194;BME280;3130;41.564;23.280;2023-03-14T11:30:18;98645.78;;;16.45;35.08
6194;BME280;3130;41.564;23.280;2023-03-14T11:32:50;98626.34;;;16.51;35.12
6194;BME280;3130;41.564;23.280;2023-03-14T11:35:25;98626.06;;;16.63;35.45
6194;BME280;3130;41.564;23.280;2023-03-14T11:37:56;98609.84;;;16.71;35.11
6194;BME280;3130;41.564;23.280;2023-03-14T11:40:29;98588.69;;;16.94;34.15
6194;BME280;3130;41.564;23.280;2023-03-14T11:43:10;98597.81;;;16.98;34.11
6194;BME280;3130;41.564;23.280;2023-03-14T11:45:41;98576.84;;;16.82;33.61
6194;BME280;3130;41.564;23.280;2023-03-14T11:48:17;98566.09;;;16.77;33.77
6194;BME280;3130;41.564;23.280;2023-03-14T11:50:50;98583.75;;;17.10;33.86
6194;BME280;3130;41.564;23.280;2023-03-14T11:53:22;98578.53;;;17.29;34.10
6194;BME280;3130;41.564;23.280;2023-03-14T11:55:54;98578.41;;;17.30;33.19
6194;BME280;3130;41.564;23.280;2023-03-14T11:58:26;98537.09;;;17.19;32.13
6194;BME280;3130;41.564;23.280;2023-03-14T12:00:55;98561.34;;;17.37;31.93
6194;BME280;3130;41.564;23.280;2023-03-14T12:03:29;98487.94;;;16.91;30.60
6194;BME280;3130;41.564;23.280;2023-03-14T12:06:05;98554.06;;;17.41;31.01
6194;BME280;3130;41.564;23.280;2023-03-14T12:08:46;98556.25;;;17.45;30.99
6194;BME280;3130;41.564;23.280;2023-03-14T12:11:19;98545.88;;;17.45;30.76
6194;BME280;3130;41.564;23.280;2023-03-14T12:13:49;98543.44;;;17.44;30.06
6194;BME280;3130;41.564;23.280;2023-03-14T12:16:35;98533.75;;;17.46;29.10
6194;BME280;3130;41.564;23.280;2023-03-14T12:19:31;98531.75;;;17.57;29.28
6194;BME280;3130;41.564;23.280;2023-03-14T12:22:06;98418.63;;;16.76;29.04
6194;BME280;3130;41.564;23.280;2023-03-14T12:24:36;98519.94;;;17.45;29.17
6194;BME280;3130;41.564;23.280;2023-03-14T12:27:09;98514.53;;;17.39;28.75
6194;BME280;3130;41.564;23.280;2023-03-14T12:29:57;98502.69;;;17.54;27.99
6194;BME280;3130;41.564;23.280;2023-03-14T12:32:25;98501.50;;;17.48;26.36
6194;BME280;3130;41.564;23.280;2023-03-14T12:34:53;98495.22;;;17.51;25.65
6194;BME280;3130;41.564;23.280;2023-03-14T12:37:25;98477.56;;;17.81;27.17
6194;BME280;3130;41.564;23.280;2023-03-14T12:40:13;98469.25;;;17.78;27.61
6194;BME280;3130;41.564;23.280;2023-03-14T12:42:57;98476.75;;;17.81;26.68
6194;BME280;3130;41.564;23.280;2023-03-14T12:45:28;98479.13;;;18.09;27.55
6194;BME280;3130;41.564;23.280;2023-03-14T12:48:09;98415.06;;;17.92;27.68
6194;BME280;3130;41.564;23.280;2023-03-14T12:50:44;98395.88;;;17.85;28.17
6194;BME280;3130;41.564;23.280;2023-03-14T12:53:42;98458.13;;;18.03;27.22
6194;BME280;3130;41.564;23.280;2023-03-14T12:56:24;98460.50;;;18.14;26.41
6194;BME280;3130;41.564;23.280;2023-03-14T12:59:05;98461.03;;;18.17;27.35
6194;BME280;3130;41.564;23.280;2023-03-14T13:01:46;98455.19;;;18.32;28.34
6194;BME280;3130;41.564;23.280;2023-03-14T13:04:14;98448.19;;;18.33;27.96
6194;BME280;3130;41.564;23.280;2023-03-14T13:06:47;98430.84;;;18.33;27.15
6194;BME280;3130;41.564;23.280;2023-03-14T13:12:29;98440.72;;;18.30;26.53
6194;BME280;3130;41.564;23.280;2023-03-14T13:15:00;98391.19;;;18.06;26.66
6194;BME280;3130;41.564;23.280;2023-03-14T13:17:31;98411.84;;;18.58;26.54
6194;BME280;3130;41.564;23.280;2023-03-14T13:20:02;98407.78;;;18.89;26.72
6194;BME280;3130;41.564;23.280;2023-03-14T13:22:33;98422.41;;;18.90;25.64
6194;BME280;3130;41.564;23.280;2023-03-14T13:25:06;98415.25;;;18.84;25.56
6194;BME280;3130;41.564;23.280;2023-03-14T13:27:34;98404.09;;;18.92;25.92
6194;BME280;3130;41.564;23.280;2023-03-14T13:30:22;98411.75;;;18.68;27.60
6194;BME280;3130;41.564;23.280;2023-03-14T13:32:50;98396.94;;;18.35;27.22
6194;BME280;3130;41.564;23.280;2023-03-14T13:35:19;98393.97;;;18.55;28.04
6194;BME280;3130;41.564;23.280;2023-03-14T13:37:52;98394.59;;;18.83;28.14